Aérodrome :
LOGIN :

S'inscrire | Disclaimer

   EN    FR    IT 

 










Légende :    VFR   VFR Marginal   IFR   IFR Intensif   IFR Très Intensif
Visi : 
Plafond : 
>= 8 km
>= 3000ft
5 à 8 km
1000 à 3000 ft
1500m à 5 km
500 à 1000 ft
800 à 1500m
200 à 500 ft
< 800m
< 200 ft
Symboles :   Orages  Brouillard  Fortes neiges  Fortes précipitations  Vent > 20 kt
SIGMETs :   Divers  Orages  Givrage  Turbulence  Onde Orograph.  Cendres Volcan.






- Altitude de l'aérodrome : 485 ft
- Code IATA : QSA


LELL - Sabadell

DERNIER METAR :
  • 190630Z 08003KT 020V110 CAVOK 21/17 Q1011

METARs EXPIRÉS :
  • 190600Z VRB02KT CAVOK 20/17 Q1010
  • 190530Z AUTO VRB01KT 9000 NSC 20/17 Q1011
  • 190500Z AUTO 31003KT 260V340 CAVOK 19/16 Q1011
  • 190430Z AUTO 30003KT 230V350 CAVOK 19/17 Q1010
  • 190400Z AUTO 17003KT 120V210 CAVOK 19/17 Q1010
  • 190330Z AUTO VRB01KT CAVOK 17/15 Q1010
  • 190300Z AUTO VRB02KT CAVOK 18/16 Q1010
  • 190230Z AUTO VRB02KT CAVOK 18/16 Q1010
  • 190200Z AUTO 30003KT CAVOK 18/17 Q1011

TAF TAF LELL
Valide du 19 à 03h jusqu'au 20 à 03h UTC


190200Z 1903/2003 VRB03KT 9999 FEW030 TX29/1913Z TN16/1905Z
BECMG 1905/1907 12006KT
PROB30
TEMPO 1907/1910 3000 TSRA FEW020CB
TEMPO 1912/1918 12010KT
TEMPO 1922/2003 SHRA FEW050TCU
PROB30
TEMPO 1923/2003 4000 TSRA FEW050CB



MET'MAP, la Météo Aéronautique d'un coup d'oeil ! - Copyright ORBIFLY Décembre 2007 - Disclaimer

ORBIFLY MET'MAP TEAM :

Programmation & Développement : Alexandra Zaïnal
Sur une idée originale de : Baudouin d'Aumeries
Soutien technique & logistique : Manuel Goepfert
Assistance : Marc-Olivier Méhu




SOURCES & CREDITS :

   NOAA